Time;durP1;ratioP1;P1;durP2;ratioP2;P2;SDS_P1;SDS_P2;PMS_P1;PMS_P2;Temp;Humidity;BMP_temperature;BMP_pressure;BME280_temperature;BME280_humidity;BME280_pressure;Samples;Min_cycle;Max_cycle;Signal;HPM_P1;HPM_P2
2022/12/06 00:01:30;;;;;;;9.65;4.32;;;;;;;;;;5092911;28;20110;-60
2022/12/06 00:03:58;;;;;;;12.15;5.28;;;;;;;;;;5092837;28;20024;-60
2022/12/06 00:06:26;;;;;;;11.90;4.88;;;;;;;;;;5092875;28;20464;-60
2022/12/06 00:08:52;;;;;;;9.85;4.40;;;;;;;;;;5093033;28;20058;-60
2022/12/06 00:11:21;;;;;;;10.10;4.55;;;;;;;;;;5092667;28;20468;-60
2022/12/06 00:13:51;;;;;;;10.77;4.40;;;;;;;;;;5092740;28;20055;-61
2022/12/06 00:16:16;;;;;;;11.00;4.60;;;;;;;;;;5093080;28;20027;-61
2022/12/06 00:18:43;;;;;;;13.95;4.50;;;;;;;;;;5092307;28;20118;-61
2022/12/06 00:21:10;;;;;;;9.57;4.47;;;;;;;;;;5092640;28;20069;-61
2022/12/06 00:23:37;;;;;;;11.10;5.15;;;;;;;;;;5092522;28;20067;-62
2022/12/06 00:26:03;;;;;;;12.65;4.50;;;;;;;;;;5092764;28;20028;-61
2022/12/06 00:28:29;;;;;;;12.80;4.50;;;;;;;;;;5092513;28;20069;-62
2022/12/06 00:30:59;;;;;;;8.95;5.00;;;;;;;;;;5092551;28;20031;-61
2022/12/06 00:33:25;;;;;;;15.32;5.15;;;;;;;;;;5092444;28;20027;-61
2022/12/06 00:35:59;;;;;;;14.20;4.97;;;;;;;;;;5092376;28;20031;-61
2022/12/06 00:38:25;;;;;;;9.40;4.57;;;;;;;;;;5092320;28;20025;-61
2022/12/06 00:40:58;;;;;;;9.20;4.45;;;;;;;;;;5074313;28;20024;-60
2022/12/06 00:43:23;;;;;;;8.90;4.13;;;;;;;;;;5092409;28;20077;-60
2022/12/06 00:45:49;;;;;;;12.93;4.75;;;;;;;;;;5092332;28;20024;-60
2022/12/06 00:48:14;;;;;;;11.43;4.90;;;;;;;;;;5092239;28;20420;-60
2022/12/06 00:50:40;;;;;;;13.18;4.78;;;;;;;;;;5093092;28;20097;-60
2022/12/06 00:53:05;;;;;;;7.90;4.78;;;;;;;;;;5096543;28;20026;-60
2022/12/06 00:55:31;;;;;;;15.02;5.03;;;;;;;;;;5096460;28;20063;-60
2022/12/06 00:57:56;;;;;;;9.88;4.28;;;;;;;;;;5096225;28;20035;-60
2022/12/06 01:00:22;;;;;;;11.02;5.03;;;;;;;;;;5096422;28;20024;-60
2022/12/06 01:02:47;;;;;;;10.00;4.82;;;;;;;;;;5096463;28;20416;-60
2022/12/06 01:05:13;;;;;;;11.57;4.43;;;;;;;;;;5096364;28;20060;-59
2022/12/06 01:07:38;;;;;;;9.85;3.95;;;;;;;;;;5096111;28;20063;-60
2022/12/06 01:10:04;;;;;;;11.60;4.53;;;;;;;;;;5096376;28;20024;-61
2022/12/06 01:12:30;;;;;;;12.57;4.88;;;;;;;;;;5096073;28;20463;-61
2022/12/06 01:14:55;;;;;;;6.03;3.92;;;;;;;;;;5078039;28;20027;-61
2022/12/06 01:17:21;;;;;;;9.65;4.90;;;;;;;;;;5096096;28;20521;-61
2022/12/06 01:19:48;;;;;;;10.30;4.53;;;;;;;;;;5095684;28;20047;-60
2022/12/06 01:22:14;;;;;;;7.65;4.55;;;;;;;;;;5096188;28;20056;-60
2022/12/06 01:24:40;;;;;;;9.88;4.72;;;;;;;;;;5096149;28;20051;-60
2022/12/06 01:27:06;;;;;;;9.73;4.78;;;;;;;;;;5095804;28;20016;-59
2022/12/06 01:29:32;;;;;;;8.10;4.35;;;;;;;;;;5095803;28;20353;-59
2022/12/06 01:31:57;;;;;;;8.63;3.83;;;;;;;;;;5095829;28;20047;-60
2022/12/06 01:34:23;;;;;;;9.82;4.30;;;;;;;;;;5095748;28;20495;-60
2022/12/06 01:36:49;;;;;;;8.13;3.65;;;;;;;;;;5096106;28;20031;-60
2022/12/06 01:39:14;;;;;;;10.45;4.38;;;;;;;;;;5095527;28;20361;-60
2022/12/06 01:41:40;;;;;;;8.88;4.60;;;;;;;;;;5095765;28;20063;-60
2022/12/06 01:44:07;;;;;;;8.27;4.18;;;;;;;;;;5095728;28;20024;-60
2022/12/06 01:46:40;;;;;;;9.48;3.90;;;;;;;;;;5095455;28;20088;-60
2022/12/06 01:49:11;;;;;;;9.60;4.20;;;;;;;;;;5095475;28;20032;-60
2022/12/06 01:51:53;;;;;;;14.82;4.43;;;;;;;;;;5095373;28;20050;-60
2022/12/06 01:54:20;;;;;;;9.15;4.32;;;;;;;;;;5095697;28;20031;-59
2022/12/06 01:56:47;;;;;;;10.35;4.47;;;;;;;;;;5095249;28;20479;-60
2022/12/06 01:59:14;;;;;;;9.65;4.75;;;;;;;;;;5095136;28;20032;-60
2022/12/06 02:01:40;;;;;;;10.88;4.53;;;;;;;;;;5094582;28;20444;-60
2022/12/06 02:04:06;;;;;;;10.05;4.70;;;;;;;;;;5094379;28;20051;-60
2022/12/06 02:06:32;;;;;;;7.88;3.83;;;;;;;;;;5095081;28;20060;-61
2022/12/06 02:08:59;;;;;;;7.72;4.32;;;;;;;;;;5095365;28;20056;-61
2022/12/06 02:11:25;;;;;;;8.10;3.95;;;;;;;;;;5094999;28;20472;-62
2022/12/06 02:13:51;;;;;;;6.38;4.13;;;;;;;;;;5094773;28;20043;-61
2022/12/06 02:16:23;;;;;;;5.97;3.85;;;;;;;;;;5094838;28;20031;-61
2022/12/06 02:18:57;;;;;;;9.48;4.13;;;;;;;;;;5094674;28;20471;-61
2022/12/06 02:21:49;;;;;;;8.18;4.07;;;;;;;;;;5094828;28;20483;-61
2022/12/06 02:24:53;;;;;;;8.95;4.00;;;;;;;;;;5086182;28;20182;-61
2022/12/06 02:27:48;;;;;;;10.13;4.40;;;;;;;;;;5039470;28;20477;-60
2022/12/06 02:30:36;;;;;;;8.35;3.95;;;;;;;;;;5094604;28;20048;-61
2022/12/06 02:33:43;;;;;;;7.45;3.65;;;;;;;;;;5094883;28;20020;-60
2022/12/06 02:36:17;;;;;;;7.50;3.90;;;;;;;;;;5031960;28;20071;-61
2022/12/06 02:38:48;;;;;;;6.10;4.13;;;;;;;;;;5084862;28;20047;-61
2022/12/06 02:42:03;;;;;;;5.32;3.83;;;;;;;;;;5094706;28;20036;-61
2022/12/06 02:44:38;;;;;;;8.23;4.32;;;;;;;;;;5090203;28;20093;-61
2022/12/06 02:47:06;;;;;;;9.45;3.95;;;;;;;;;;5094438;28;20020;-61
2022/12/06 02:49:35;;;;;;;6.43;3.78;;;;;;;;;;5094203;28;20125;-61
2022/12/06 02:52:01;;;;;;;9.13;4.63;;;;;;;;;;5094409;28;20424;-62
2022/12/06 02:54:28;;;;;;;8.68;4.78;;;;;;;;;;5094153;28;20103;-61
2022/12/06 02:56:54;;;;;;;9.25;3.90;;;;;;;;;;5094126;28;20031;-61
2022/12/06 02:59:19;;;;;;;6.93;3.70;;;;;;;;;;5093984;28;20483;-61
2022/12/06 03:01:50;;;;;;;8.55;3.90;;;;;;;;;;5093954;28;20350;-61
2022/12/06 03:04:31;;;;;;;5.95;3.70;;;;;;;;;;5093944;28;20032;-61
2022/12/06 03:07:25;;;;;;;6.13;3.60;;;;;;;;;;5093987;28;20048;-61
2022/12/06 03:10:02;;;;;;;8.85;4.15;;;;;;;;;;5093705;28;20024;-61
2022/12/06 03:12:55;;;;;;;9.13;3.72;;;;;;;;;;5093893;28;20027;-61
2022/12/06 03:15:50;;;;;;;8.00;4.22;;;;;;;;;;5093861;28;20374;-62
2022/12/06 03:18:25;;;;;;;5.80;3.38;;;;;;;;;;5079940;28;20522;-61
2022/12/06 03:20:57;;;;;;;7.53;4.10;;;;;;;;;;5093514;28;20396;-60
2022/12/06 03:23:29;;;;;;;8.20;3.55;;;;;;;;;;5075372;28;20039;-60
2022/12/06 03:25:59;;;;;;;6.75;3.83;;;;;;;;;;5093557;28;20026;-62
2022/12/06 03:28:26;;;;;;;6.88;3.97;;;;;;;;;;5093615;28;20379;-62
2022/12/06 03:30:56;;;;;;;7.55;3.75;;;;;;;;;;5093488;28;20035;-61
2022/12/06 03:33:24;;;;;;;6.45;3.45;;;;;;;;;;5093412;28;20391;-61
2022/12/06 03:35:52;;;;;;;8.93;4.00;;;;;;;;;;5093311;28;20016;-61
2022/12/06 03:38:32;;;;;;;7.78;3.95;;;;;;;;;;5093219;28;20024;-61
2022/12/06 03:41:02;;;;;;;8.68;4.53;;;;;;;;;;5093329;28;20027;-61
2022/12/06 03:43:27;;;;;;;6.20;3.45;;;;;;;;;;5093247;28;20078;-61
2022/12/06 03:46:34;;;;;;;6.45;3.83;;;;;;;;;;5093272;28;20056;-61
2022/12/06 03:49:14;;;;;;;6.88;3.75;;;;;;;;;;5085014;28;20036;-61
2022/12/06 03:51:42;;;;;;;7.40;3.72;;;;;;;;;;5093258;28;20438;-60
2022/12/06 03:54:08;;;;;;;5.75;3.60;;;;;;;;;;5093287;28;20484;-60
2022/12/06 03:56:35;;;;;;;5.93;3.42;;;;;;;;;;5093074;28;20031;-62
2022/12/06 03:59:06;;;;;;;7.68;3.72;;;;;;;;;;5092893;28;20028;-61
2022/12/06 04:01:32;;;;;;;7.45;3.95;;;;;;;;;;5092887;28;20490;-61
2022/12/06 04:03:57;;;;;;;6.97;4.13;;;;;;;;;;5092857;28;20024;-62
2022/12/06 04:06:23;;;;;;;7.32;3.70;;;;;;;;;;5092786;28;20037;-62
2022/12/06 04:08:48;;;;;;;5.47;3.90;;;;;;;;;;5092873;28;20059;-61
2022/12/06 04:11:14;;;;;;;5.57;3.33;;;;;;;;;;5092756;28;20023;-61
2022/12/06 04:13:40;;;;;;;8.63;3.53;;;;;;;;;;5092713;28;20055;-61
2022/12/06 04:18:50;;;;;;;5.63;3.55;;;;;;;;;;5092697;28;20441;-61
2022/12/06 04:23:56;;;;;;;7.40;3.78;;;;;;;;;;5092952;28;20036;-60
2022/12/06 04:26:23;;;;;;;8.98;4.32;;;;;;;;;;5091749;28;20028;-60
2022/12/06 04:39:48;;;;;;;6.15;3.78;;;;;;;;;;5092369;28;20047;-61
2022/12/06 04:44:58;;;;;;;7.47;3.90;;;;;;;;;;5092695;28;20074;-61
2022/12/06 04:47:23;;;;;;;4.80;3.20;;;;;;;;;;5092386;28;20052;-60
2022/12/06 04:49:49;;;;;;;9.27;3.90;;;;;;;;;;5092107;28;20122;-60
2022/12/06 04:52:15;;;;;;;6.50;3.42;;;;;;;;;;5092333;28;20078;-60
2022/12/06 04:54:41;;;;;;;6.70;3.60;;;;;;;;;;5092464;28;20024;-60
2022/12/06 04:57:10;;;;;;;6.32;3.83;;;;;;;;;;5092253;28;20044;-60
2022/12/06 04:59:41;;;;;;;5.70;4.05;;;;;;;;;;5092095;28;20472;-60
2022/12/06 05:02:07;;;;;;;;;;;;;;;;;;5092692;28;20043;-59
2022/12/06 05:04:33;;;;;;;6.20;4.03;;;;;;;;;;5092369;28;19970;-60
2022/12/06 05:06:58;;;;;;;6.50;3.38;;;;;;;;;;5092230;28;20484;-59
2022/12/06 05:09:24;;;;;;;6.85;3.40;;;;;;;;;;5074080;28;20028;-60
2022/12/06 05:11:50;;;;;;;6.63;3.55;;;;;;;;;;5091957;28;20091;-60
2022/12/06 05:14:15;;;;;;;6.43;3.47;;;;;;;;;;5091987;28;20491;-60
2022/12/06 05:16:41;;;;;;;7.10;4.00;;;;;;;;;;5092373;28;20020;-60
2022/12/06 05:19:07;;;;;;;5.57;3.33;;;;;;;;;;5091903;28;20055;-60
2022/12/06 05:21:32;;;;;;;6.53;3.80;;;;;;;;;;5092027;28;20028;-59
2022/12/06 05:23:58;;;;;;;6.88;3.40;;;;;;;;;;5092060;28;20024;-60
2022/12/06 05:26:26;;;;;;;7.22;3.83;;;;;;;;;;5091963;28;20491;-59
2022/12/06 05:28:52;;;;;;;5.78;3.25;;;;;;;;;;5091906;28;20525;-61
2022/12/06 05:31:19;;;;;;;8.02;3.17;;;;;;;;;;5092159;28;20035;-61
2022/12/06 05:33:45;;;;;;;4.63;3.22;;;;;;;;;;5091933;28;20024;-61
2022/12/06 05:36:15;;;;;;;4.53;3.40;;;;;;;;;;5091885;28;20028;-60
2022/12/06 05:38:41;;;;;;;4.53;3.45;;;;;;;;;;5095537;28;20032;-61
2022/12/06 05:41:07;;;;;;;5.22;3.25;;;;;;;;;;5095602;28;20031;-61
2022/12/06 05:43:33;;;;;;;4.47;3.33;;;;;;;;;;5095530;28;20384;-62
2022/12/06 05:45:58;;;;;;;5.50;3.20;;;;;;;;;;5095678;28;20023;-61
2022/12/06 05:48:24;;;;;;;4.75;3.28;;;;;;;;;;5077489;28;20453;-61
2022/12/06 05:50:50;;;;;;;4.60;3.50;;;;;;;;;;5095515;28;20024;-61
2022/12/06 05:53:16;;;;;;;6.55;3.20;;;;;;;;;;5095225;28;20028;-61
2022/12/06 05:55:43;;;;;;;6.00;3.25;;;;;;;;;;5095540;28;20020;-61
2022/12/06 05:58:09;;;;;;;6.13;3.40;;;;;;;;;;5095177;28;20027;-61
2022/12/06 06:00:35;;;;;;;5.53;3.40;;;;;;;;;;5095403;28;20028;-60
2022/12/06 06:03:01;;;;;;;4.47;3.35;;;;;;;;;;5095389;28;20459;-62
2022/12/06 06:05:27;;;;;;;5.43;3.63;;;;;;;;;;5095193;28;20032;-61
2022/12/06 06:07:53;;;;;;;6.10;3.30;;;;;;;;;;5094927;28;20030;-61
2022/12/06 06:10:19;;;;;;;5.03;3.15;;;;;;;;;;5095534;28;20032;-61
2022/12/06 06:12:45;;;;;;;4.97;3.63;;;;;;;;;;5094934;28;20077;-60
2022/12/06 06:15:11;;;;;;;6.70;3.60;;;;;;;;;;5094951;28;20020;-61
2022/12/06 06:17:37;;;;;;;6.30;3.42;;;;;;;;;;5094825;28;20052;-62
2022/12/06 06:20:05;;;;;;;3.92;3.15;;;;;;;;;;5076451;28;20090;-61
2022/12/06 06:22:32;;;;;;;6.22;3.53;;;;;;;;;;5094711;28;20054;-60
2022/12/06 06:24:58;;;;;;;5.20;3.25;;;;;;;;;;5094609;28;20028;-58
2022/12/06 06:27:24;;;;;;;4.95;3.20;;;;;;;;;;5081172;28;20024;-60
2022/12/06 06:29:50;;;;;;;5.78;3.08;;;;;;;;;;5069765;28;20031;-59
2022/12/06 06:32:15;;;;;;;4.47;3.00;;;;;;;;;;5069718;28;20029;-60
2022/12/06 06:34:41;;;;;;;4.55;3.30;;;;;;;;;;5066773;28;20032;-60
2022/12/06 06:37:06;;;;;;;5.85;3.60;;;;;;;;;;5061777;28;20032;-60
2022/12/06 06:39:33;;;;;;;4.85;3.25;;;;;;;;;;5071673;28;20036;-60
2022/12/06 06:41:58;;;;;;;6.43;3.63;;;;;;;;;;5073667;28;20058;-61
2022/12/06 06:44:24;;;;;;;5.97;3.10;;;;;;;;;;5072938;28;20043;-60
2022/12/06 06:46:49;;;;;;;5.95;3.25;;;;;;;;;;5074173;28;20217;-60
2022/12/06 06:49:16;;;;;;;4.88;3.22;;;;;;;;;;5073241;28;20058;-60
2022/12/06 06:51:42;;;;;;;5.18;3.08;;;;;;;;;;5073738;28;20119;-60
2022/12/06 06:54:07;;;;;;;5.00;3.20;;;;;;;;;;5074005;28;20055;-60
2022/12/06 06:56:33;;;;;;;5.95;3.35;;;;;;;;;;5073983;28;20020;-61
2022/12/06 06:58:59;;;;;;;6.05;3.38;;;;;;;;;;5073983;28;20078;-61
2022/12/06 07:01:26;;;;;;;4.18;2.90;;;;;;;;;;5073672;28;20453;-60
2022/12/06 07:03:52;;;;;;;4.82;3.10;;;;;;;;;;5073616;28;20028;-60
2022/12/06 07:06:17;;;;;;;6.18;3.35;;;;;;;;;;5055893;28;20098;-61
2022/12/06 07:08:43;;;;;;;5.97;3.00;;;;;;;;;;5055723;28;20487;-61
2022/12/06 07:11:09;;;;;;;5.43;3.03;;;;;;;;;;5073564;28;20060;-61
2022/12/06 07:13:37;;;;;;;5.70;3.38;;;;;;;;;;5055634;28;20029;-60
2022/12/06 07:16:04;;;;;;;4.25;3.25;;;;;;;;;;5073332;28;20515;-62
2022/12/06 07:18:29;;;;;;;4.03;3.08;;;;;;;;;;5073281;28;20513;-61
2022/12/06 07:21:04;;;;;;;4.97;3.40;;;;;;;;;;5073265;28;20135;-61
2022/12/06 07:23:31;;;;;;;5.90;3.47;;;;;;;;;;5073246;28;20032;-61
2022/12/06 07:26:00;;;;;;;4.90;3.15;;;;;;;;;;5073411;28;20020;-61
2022/12/06 07:28:26;;;;;;;4.57;3.00;;;;;;;;;;5073265;28;20027;-61
2022/12/06 07:30:51;;;;;;;4.47;2.80;;;;;;;;;;5073218;28;20024;-62
2022/12/06 07:33:17;;;;;;;5.13;3.03;;;;;;;;;;5055577;28;20025;-61
2022/12/06 07:35:42;;;;;;;4.85;2.95;;;;;;;;;;5072044;28;20026;-60
2022/12/06 07:38:08;;;;;;;6.70;3.38;;;;;;;;;;5071465;28;20476;-61
2022/12/06 07:40:33;;;;;;;4.70;3.05;;;;;;;;;;5053668;28;20020;-62
2022/12/06 07:45:43;;;;;;;4.40;3.03;;;;;;;;;;5071426;28;20031;-60
2022/12/06 07:48:10;;;;;;;4.45;3.53;;;;;;;;;;5070854;28;20111;-61
2022/12/06 07:50:35;;;;;;;4.68;3.17;;;;;;;;;;5071427;28;20113;-60
2022/12/06 07:53:02;;;;;;;6.03;3.22;;;;;;;;;;5071294;28;20498;-60
2022/12/06 07:55:27;;;;;;;6.20;3.13;;;;;;;;;;5071081;28;20028;-60
2022/12/06 07:57:53;;;;;;;4.38;3.30;;;;;;;;;;5070774;28;20107;-60
2022/12/06 08:00:19;;;;;;;3.30;2.88;;;;;;;;;;5070887;28;20070;-60
2022/12/06 08:02:45;;;;;;;3.75;3.15;;;;;;;;;;5071081;28;20036;-60
2022/12/06 08:05:11;;;;;;;5.43;3.55;;;;;;;;;;5071793;28;20028;-60
2022/12/06 08:07:38;;;;;;;3.83;3.08;;;;;;;;;;5071077;28;20376;-61
2022/12/06 08:10:04;;;;;;;3.60;2.95;;;;;;;;;;5070696;28;20035;-61
2022/12/06 08:12:31;;;;;;;4.60;3.22;;;;;;;;;;5067036;28;20037;-61
2022/12/06 08:14:56;;;;;;;6.30;3.42;;;;;;;;;;5051800;28;20029;-61
2022/12/06 08:17:22;;;;;;;5.22;3.28;;;;;;;;;;5070304;28;20361;-60
2022/12/06 08:19:47;;;;;;;5.07;2.80;;;;;;;;;;5067254;28;20556;-60
2022/12/06 08:22:13;;;;;;;5.47;3.13;;;;;;;;;;5068887;28;20605;-62
2022/12/06 08:24:39;;;;;;;4.82;3.20;;;;;;;;;;5068553;28;20028;-61
2022/12/06 08:27:05;;;;;;;4.88;3.20;;;;;;;;;;5070859;28;20029;-60
2022/12/06 08:29:30;;;;;;;5.63;3.20;;;;;;;;;;5070810;28;20063;-60
2022/12/06 08:31:56;;;;;;;5.68;3.08;;;;;;;;;;5076900;28;20056;-60
2022/12/06 08:34:22;;;;;;;4.38;2.97;;;;;;;;;;5079585;28;20031;-60
2022/12/06 08:36:47;;;;;;;4.78;3.30;;;;;;;;;;5077766;28;20107;-61
2022/12/06 08:39:13;;;;;;;6.03;3.60;;;;;;;;;;5077645;28;20133;-62
2022/12/06 08:41:54;;;;;;;24.77;4.43;;;;;;;;;;5077012;28;20435;-62
2022/12/06 08:44:20;;;;;;;16.90;3.70;;;;;;;;;;5072819;28;20437;-63
2022/12/06 08:46:46;;;;;;;6.57;3.50;;;;;;;;;;5078840;28;20048;-61
2022/12/06 08:49:14;;;;;;;8.95;3.75;;;;;;;;;;5078532;28;20042;-63
2022/12/06 08:51:40;;;;;;;7.45;3.30;;;;;;;;;;5065649;28;20384;-62
2022/12/06 08:54:07;;;;;;;6.93;3.70;;;;;;;;;;5070078;28;20078;-62
2022/12/06 08:56:34;;;;;;;8.45;3.55;;;;;;;;;;5070521;28;20519;-62
2022/12/06 08:59:00;;;;;;;11.70;3.08;;;;;;;;;;5070128;28;20079;-63
2022/12/06 09:01:29;;;;;;;6.68;3.30;;;;;;;;;;5052314;28;20029;-62
2022/12/06 09:03:54;;;;;;;7.82;3.67;;;;;;;;;;5070440;28;20060;-62
2022/12/06 09:06:21;;;;;;;6.53;3.47;;;;;;;;;;5070453;28;20071;-62
2022/12/06 09:08:47;;;;;;;10.90;3.65;;;;;;;;;;5068919;28;20500;-62
2022/12/06 09:11:14;;;;;;;10.25;3.85;;;;;;;;;;5070181;28;20033;-62
2022/12/06 09:13:39;;;;;;;5.25;3.40;;;;;;;;;;5084149;28;20079;-63
2022/12/06 09:16:07;;;;;;;27.08;4.20;;;;;;;;;;5082563;28;20472;-61
2022/12/06 09:18:33;;;;;;;7.38;3.67;;;;;;;;;;5084141;28;20544;-60
2022/12/06 09:20:59;;;;;;;9.48;3.90;;;;;;;;;;5082401;28;20048;-60
2022/12/06 09:23:24;;;;;;;8.40;3.80;;;;;;;;;;5083164;28;20373;-60
2022/12/06 09:25:50;;;;;;;13.35;3.75;;;;;;;;;;5088066;28;20109;-61
2022/12/06 09:28:16;;;;;;;7.35;4.00;;;;;;;;;;5094013;28;20100;-61
2022/12/06 09:30:44;;;;;;;12.75;3.80;;;;;;;;;;5094183;28;20027;-62
2022/12/06 09:33:09;;;;;;;9.90;3.53;;;;;;;;;;5094226;28;20036;-63
2022/12/06 09:35:35;;;;;;;7.68;4.05;;;;;;;;;;5094093;28;20031;-63
2022/12/06 09:38:02;;;;;;;5.95;3.75;;;;;;;;;;5094037;28;20035;-62
2022/12/06 09:40:37;;;;;;;12.93;4.05;;;;;;;;;;5075924;28;20388;-63
2022/12/06 09:43:15;;;;;;;12.85;3.80;;;;;;;;;;5094286;28;20115;-63
2022/12/06 09:46:10;;;;;;;7.57;3.53;;;;;;;;;;5093916;28;20024;-63
2022/12/06 09:49:03;;;;;;;6.85;3.72;;;;;;;;;;5093762;28;20472;-62
2022/12/06 09:51:56;;;;;;;11.90;3.47;;;;;;;;;;5093770;28;20028;-63
2022/12/06 09:54:32;;;;;;;8.43;3.70;;;;;;;;;;5093708;28;20024;-62
2022/12/06 09:57:28;;;;;;;9.82;3.80;;;;;;;;;;5094004;28;20466;-64
2022/12/06 10:00:11;;;;;;;8.63;3.97;;;;;;;;;;5090115;28;20044;-62
2022/12/06 10:03:04;;;;;;;14.88;4.30;;;;;;;;;;5093660;28;20032;-62
2022/12/06 10:06:01;;;;;;;13.13;3.88;;;;;;;;;;5093530;28;20051;-62
2022/12/06 10:08:41;;;;;;;6.20;3.58;;;;;;;;;;5093550;28;20103;-62
2022/12/06 10:11:35;;;;;;;9.82;3.78;;;;;;;;;;5093260;28;20025;-62
2022/12/06 10:14:28;;;;;;;8.15;3.55;;;;;;;;;;5075173;28;20069;-63
2022/12/06 10:16:59;;;;;;;7.93;3.80;;;;;;;;;;5093482;28;20035;-63
2022/12/06 10:19:50;;;;;;;14.57;3.63;;;;;;;;;;5059053;28;20127;-65
2022/12/06 10:22:25;;;;;;;6.40;3.50;;;;;;;;;;5056785;28;20048;-63
2022/12/06 10:24:51;;;;;;;10.07;3.67;;;;;;;;;;5071871;28;20029;-62
2022/12/06 10:27:31;;;;;;;4.85;3.38;;;;;;;;;;5072854;28;20491;-62
2022/12/06 10:30:01;;;;;;;7.68;4.03;;;;;;;;;;5072803;28;20083;-62
2022/12/06 10:32:50;;;;;;;8.23;3.65;;;;;;;;;;5072752;28;20035;-62
2022/12/06 10:35:18;;;;;;;11.38;3.58;;;;;;;;;;5072966;28;20108;-61
2022/12/06 10:38:11;;;;;;;6.13;3.35;;;;;;;;;;5072692;28;20037;-61
2022/12/06 10:40:49;;;;;;;11.23;3.63;;;;;;;;;;5072576;28;20041;-61
2022/12/06 10:43:47;;;;;;;7.43;4.07;;;;;;;;;;5072795;28;20044;-61
2022/12/06 10:49:28;;;;;;;8.45;3.70;;;;;;;;;;5072716;28;20124;-62
2022/12/06 10:52:09;;;;;;;10.07;3.90;;;;;;;;;;5072319;28;20101;-61
2022/12/06 10:54:55;;;;;;;6.78;3.78;;;;;;;;;;5072348;28;20016;-61
2022/12/06 10:57:42;;;;;;;6.05;3.80;;;;;;;;;;5057013;28;20063;-60
2022/12/06 11:00:26;;;;;;;5.68;3.53;;;;;;;;;;5072079;28;20036;-61
2022/12/06 11:03:10;;;;;;;6.30;3.60;;;;;;;;;;5054215;28;20017;-61
2022/12/06 11:05:55;;;;;;;10.20;3.63;;;;;;;;;;5070565;28;20055;-61
2022/12/06 11:08:28;;;;;;;7.35;3.80;;;;;;;;;;5036334;28;20036;-64
2022/12/06 11:10:56;;;;;;;4.63;3.40;;;;;;;;;;5070221;28;20033;-62
2022/12/06 11:13:39;;;;;;;8.38;4.03;;;;;;;;;;5071959;28;20082;-61
2022/12/06 11:16:37;;;;;;;7.35;3.75;;;;;;;;;;5071888;28;20067;-62
2022/12/06 11:19:28;;;;;;;7.35;4.05;;;;;;;;;;5066887;28;20151;-61
2022/12/06 11:22:03;;;;;;;7.20;3.78;;;;;;;;;;5071646;28;20388;-61
2022/12/06 11:24:34;;;;;;;7.45;3.58;;;;;;;;;;5071880;28;20395;-62
2022/12/06 11:27:12;;;;;;;21.80;4.55;;;;;;;;;;5071687;28;20036;-61
2022/12/06 11:29:38;;;;;;;9.18;3.45;;;;;;;;;;5071568;28;20025;-62
2022/12/06 11:32:07;;;;;;;6.72;3.38;;;;;;;;;;5071409;28;20439;-62
2022/12/06 11:34:54;;;;;;;5.90;3.35;;;;;;;;;;5071525;28;20043;-63
2022/12/06 11:37:23;;;;;;;9.45;3.65;;;;;;;;;;5071688;28;20408;-63
2022/12/06 11:39:54;;;;;;;10.52;3.60;;;;;;;;;;5053346;28;20032;-62
2022/12/06 11:42:25;;;;;;;5.30;3.05;;;;;;;;;;5053445;28;20032;-61
2022/12/06 11:45:00;;;;;;;9.23;3.40;;;;;;;;;;5071440;28;20468;-62
2022/12/06 11:47:25;;;;;;;8.10;3.30;;;;;;;;;;5071426;28;20107;-62
2022/12/06 11:49:54;;;;;;;4.72;3.17;;;;;;;;;;5070977;28;20099;-62
2022/12/06 11:52:32;;;;;;;7.15;3.60;;;;;;;;;;5071376;28;20468;-61
2022/12/06 11:55:04;;;;;;;5.90;3.25;;;;;;;;;;5071205;28;20122;-62
2022/12/06 11:58:14;;;;;;;8.45;3.45;;;;;;;;;;5071467;28;20021;-62
2022/12/06 12:00:59;;;;;;;8.40;3.40;;;;;;;;;;5071048;28;20555;-63
2022/12/06 12:03:33;;;;;;;5.00;3.30;;;;;;;;;;5071004;28;20040;-63
2022/12/06 12:06:18;;;;;;;4.88;3.38;;;;;;;;;;5070975;28;20036;-64
2022/12/06 12:08:55;;;;;;;7.40;3.42;;;;;;;;;;5071099;28;20028;-61
2022/12/06 12:11:24;;;;;;;4.55;3.10;;;;;;;;;;5052577;28;20024;-63
2022/12/06 12:14:23;;;;;;;7.68;3.72;;;;;;;;;;5070770;28;20096;-62
2022/12/06 12:16:53;;;;;;;5.80;3.15;;;;;;;;;;5070754;28;20028;-62
2022/12/06 12:19:34;;;;;;;;;;;;;;;;;;5071337;28;20113;-62
2022/12/06 12:22:18;;;;;;;6.28;3.25;;;;;;;;;;5070686;28;20312;-61
2022/12/06 12:24:53;;;;;;;4.88;3.42;;;;;;;;;;5070700;28;20569;-61
2022/12/06 12:27:34;;;;;;;6.78;3.42;;;;;;;;;;5070849;28;20025;-60
2022/12/06 12:30:20;;;;;;;6.95;4.18;;;;;;;;;;5070514;28;20029;-61
2022/12/06 12:32:47;;;;;;;5.38;3.35;;;;;;;;;;5070706;28;20028;-61
2022/12/06 12:35:38;;;;;;;6.07;3.20;;;;;;;;;;5070790;28;20476;-61
2022/12/06 12:38:09;;;;;;;7.15;3.08;;;;;;;;;;5060677;28;20040;-63
2022/12/06 12:40:38;;;;;;;5.20;3.00;;;;;;;;;;5070456;28;20119;-63
2022/12/06 12:43:15;;;;;;;4.63;3.13;;;;;;;;;;5052458;28;20094;-61
2022/12/06 12:46:08;;;;;;;5.47;3.13;;;;;;;;;;5053823;28;20112;-62
2022/12/06 12:48:35;;;;;;;6.78;3.30;;;;;;;;;;5070507;28;20039;-61
2022/12/06 12:51:04;;;;;;;5.80;3.63;;;;;;;;;;5070481;28;20035;-61
2022/12/06 12:53:37;;;;;;;5.82;3.05;;;;;;;;;;5070571;28;20078;-62
2022/12/06 12:56:13;;;;;;;7.35;3.22;;;;;;;;;;5070251;28;20032;-61
2022/12/06 12:58:40;;;;;;;4.45;2.92;;;;;;;;;;5070364;28;20032;-61
2022/12/06 13:01:29;;;;;;;3.90;2.92;;;;;;;;;;5070252;28;20036;-64
2022/12/06 13:04:11;;;;;;;6.28;3.42;;;;;;;;;;5070600;28;20717;-62
2022/12/06 13:07:09;;;;;;;5.57;3.13;;;;;;;;;;5070391;28;20024;-61
2022/12/06 13:09:53;;;;;;;6.38;2.97;;;;;;;;;;5070507;28;20032;-62
2022/12/06 13:12:39;;;;;;;4.85;3.40;;;;;;;;;;5070351;28;20036;-62
2022/12/06 13:15:14;;;;;;;4.72;2.92;;;;;;;;;;5070358;28;20032;-61
2022/12/06 13:17:44;;;;;;;5.20;3.15;;;;;;;;;;5070362;28;20028;-61
2022/12/06 13:20:25;;;;;;;5.93;2.95;;;;;;;;;;5045915;28;20048;-62
2022/12/06 13:22:54;;;;;;;5.68;3.08;;;;;;;;;;5030356;28;20068;-61
2022/12/06 13:25:20;;;;;;;5.57;2.88;;;;;;;;;;5030599;28;20405;-61
2022/12/06 13:27:55;;;;;;;6.45;3.00;;;;;;;;;;5030364;28;20025;-62
2022/12/06 13:30:27;;;;;;;4.85;2.90;;;;;;;;;;5046432;28;20544;-62
2022/12/06 13:48:23;;;;;;;4.45;3.00;;;;;;;;;;5130299;27;20449;-62
2022/12/06 13:51:01;;;;;;;4.47;3.25;;;;;;;;;;5126813;27;20031;-62
2022/12/06 13:53:32;;;;;;;6.72;2.92;;;;;;;;;;5130176;28;20015;-62
2022/12/06 13:56:28;;;;;;;4.10;3.08;;;;;;;;;;5124268;28;20497;-62
2022/12/06 13:58:56;;;;;;;7.05;3.08;;;;;;;;;;5127549;27;20048;-62
2022/12/06 14:01:53;;;;;;;5.53;3.20;;;;;;;;;;5130111;27;20084;-62
2022/12/06 14:04:25;;;;;;;6.78;3.20;;;;;;;;;;5130252;27;20019;-62
2022/12/06 14:06:52;;;;;;;3.70;2.75;;;;;;;;;;5130140;27;20056;-62
2022/12/06 14:09:18;;;;;;;4.55;3.22;;;;;;;;;;5130184;27;20106;-61
2022/12/06 14:11:44;;;;;;;5.97;3.00;;;;;;;;;;5130277;27;20126;-63
2022/12/06 14:14:19;;;;;;;4.60;3.22;;;;;;;;;;5130027;27;20023;-63
2022/12/06 14:16:47;;;;;;;5.05;3.30;;;;;;;;;;5130042;27;20031;-63
2022/12/06 14:19:15;;;;;;;5.53;3.00;;;;;;;;;;5130050;27;20023;-64
2022/12/06 14:21:59;;;;;;;9.40;3.50;;;;;;;;;;5130069;27;20065;-62
2022/12/06 14:24:25;;;;;;;6.72;3.80;;;;;;;;;;5129887;27;20084;-62
2022/12/06 14:26:51;;;;;;;4.90;2.90;;;;;;;;;;5129713;27;20032;-61
2022/12/06 14:29:23;;;;;;;5.55;3.50;;;;;;;;;;5129540;27;20035;-62
2022/12/06 14:31:50;;;;;;;5.15;2.92;;;;;;;;;;5130016;27;20068;-61
2022/12/06 14:34:27;;;;;;;10.18;3.10;;;;;;;;;;5129938;27;20023;-62
2022/12/06 14:36:53;;;;;;;5.03;3.00;;;;;;;;;;5128342;27;20058;-62
2022/12/06 14:39:22;;;;;;;9.18;3.20;;;;;;;;;;5127347;27;20047;-61
2022/12/06 14:44:50;;;;;;;7.43;3.20;;;;;;;;;;5128144;28;20030;-63
2022/12/06 14:47:17;;;;;;;7.70;2.97;;;;;;;;;;5123630;27;20059;-61
2022/12/06 14:52:31;;;;;;;4.60;3.15;;;;;;;;;;5111320;28;20073;-62
2022/12/06 14:55:16;;;;;;;4.20;2.97;;;;;;;;;;5110998;28;20148;-64
2022/12/06 14:57:48;;;;;;;5.95;2.92;;;;;;;;;;5110485;28;20153;-63
2022/12/06 15:00:29;;;;;;;6.75;3.35;;;;;;;;;;5112690;28;20471;-62
2022/12/06 15:03:10;;;;;;;8.07;3.30;;;;;;;;;;5113704;27;20034;-64
2022/12/06 15:05:51;;;;;;;6.45;3.50;;;;;;;;;;5112403;28;20027;-64
2022/12/06 15:08:30;;;;;;;5.43;2.88;;;;;;;;;;5113557;28;20020;-62
2022/12/06 15:14:12;;;;;;;4.82;3.03;;;;;;;;;;5109327;28;20034;-62
2022/12/06 15:16:39;;;;;;;3.90;3.10;;;;;;;;;;5105253;28;20032;-61
2022/12/06 15:19:15;;;;;;;4.25;3.28;;;;;;;;;;5092978;28;20082;-62
2022/12/06 15:21:41;;;;;;;6.90;3.00;;;;;;;;;;5093190;28;20031;-62
2022/12/06 15:24:18;;;;;;;3.63;2.80;;;;;;;;;;5093276;28;20016;-64
2022/12/06 15:26:44;;;;;;;7.05;3.47;;;;;;;;;;5093367;28;20075;-62
2022/12/06 15:29:10;;;;;;;9.02;3.40;;;;;;;;;;5092756;28;20482;-61
2022/12/06 15:31:36;;;;;;;4.60;2.80;;;;;;;;;;5091500;28;20082;-61
2022/12/06 15:34:05;;;;;;;7.13;3.35;;;;;;;;;;5092829;28;20036;-60
2022/12/06 15:36:32;;;;;;;4.65;3.33;;;;;;;;;;5092858;28;20051;-60
2022/12/06 15:38:57;;;;;;;8.35;2.88;;;;;;;;;;5092881;28;20023;-60
2022/12/06 15:41:25;;;;;;;3.53;3.20;;;;;;;;;;5092721;28;20513;-61
2022/12/06 15:43:52;;;;;;;4.65;3.10;;;;;;;;;;5092608;28;20676;-61
2022/12/06 15:46:23;;;;;;;4.40;3.30;;;;;;;;;;5092338;28;20055;-61
2022/12/06 15:48:50;;;;;;;6.03;2.80;;;;;;;;;;5092697;28;20039;-60
2022/12/06 15:51:17;;;;;;;5.65;3.00;;;;;;;;;;5092522;28;20028;-60
2022/12/06 15:53:44;;;;;;;7.65;3.20;;;;;;;;;;5092571;28;20032;-60
2022/12/06 15:56:13;;;;;;;8.00;3.30;;;;;;;;;;5092246;28;20035;-61